createdAt,value
2023-05-18T00:02:01.440Z,102003.84
2023-05-18T00:04:29.591Z,102001.97
2023-05-18T00:07:03.187Z,101999.81
2023-05-18T00:09:31.341Z,101992.22
2023-05-18T00:11:58.814Z,101998.88
2023-05-18T00:14:25.774Z,101994.09
2023-05-18T00:16:53.855Z,102002.09
2023-05-18T00:19:21.187Z,102001.59
2023-05-18T00:21:48.414Z,101999.94
2023-05-18T00:24:15.854Z,101994.03
2023-05-18T00:26:43.941Z,102001.63
2023-05-18T00:29:10.493Z,101994.13
2023-05-18T00:31:38.615Z,101993.44
2023-05-18T00:34:09.382Z,101994.91
2023-05-18T00:36:36.406Z,101993.75
2023-05-18T00:39:04.424Z,102002.19
2023-05-18T00:41:30.863Z,102008.25
2023-05-18T00:43:57.669Z,101993.75
2023-05-18T00:46:25.171Z,102001.03
2023-05-18T00:48:52.815Z,102001.72
2023-05-18T00:51:20.627Z,102001.41
2023-05-18T00:53:47.282Z,101996.53
2023-05-18T00:56:15.245Z,101996.88
2023-05-18T00:58:42.485Z,102007.47
2023-05-18T01:01:12.262Z,102003.34
2023-05-18T01:03:39.838Z,101999.84
2023-05-18T01:06:08.154Z,101992.84
2023-05-18T01:08:35.598Z,101996.06
2023-05-18T01:11:16.624Z,101998.47
2023-05-18T01:13:56.543Z,101996.78
2023-05-18T01:16:27.059Z,101993.16
2023-05-18T01:19:01.063Z,101997.34
2023-05-18T01:21:46.321Z,101994.47
2023-05-18T01:24:36.329Z,101998.53
2023-05-18T01:27:03.796Z,102008.16
2023-05-18T01:29:31.012Z,102001.66
2023-05-18T01:31:58.097Z,102004.00
2023-05-18T01:34:24.568Z,102002.06
2023-05-18T01:36:51.017Z,102009.72
2023-05-18T01:39:17.744Z,102015.56
2023-05-18T01:42:07.366Z,102016.91
2023-05-18T01:44:40.338Z,102016.72
2023-05-18T01:47:17.140Z,102022.84
2023-05-18T01:50:01.903Z,102014.34
2023-05-18T01:52:38.067Z,102015.91
2023-05-18T01:55:05.581Z,102014.16
2023-05-18T01:57:33.162Z,102009.69
2023-05-18T02:00:00.072Z,102011.91
2023-05-18T02:02:27.429Z,102009.00
2023-05-18T02:04:54.273Z,102013.84
2023-05-18T02:07:20.712Z,102020.69
2023-05-18T02:09:47.179Z,102009.66
2023-05-18T02:12:13.777Z,102003.41
2023-05-18T02:14:40.427Z,102018.50
2023-05-18T02:17:07.204Z,102012.84
2023-05-18T02:19:37.941Z,102009.78
2023-05-18T02:22:06.839Z,102021.25
2023-05-18T02:24:33.768Z,102017.50
2023-05-18T02:27:01.323Z,102017.91
2023-05-18T02:29:27.750Z,102015.75
2023-05-18T02:31:54.470Z,102018.50
2023-05-18T02:34:22.753Z,102013.94
2023-05-18T02:36:49.364Z,102015.75
2023-05-18T02:39:16.115Z,102016.81
2023-05-18T02:41:42.548Z,102019.50
2023-05-18T02:44:09.003Z,102020.81
2023-05-18T02:46:35.456Z,102031.03
2023-05-18T02:49:01.922Z,102025.38
2023-05-18T02:51:28.412Z,102032.03
2023-05-18T02:53:54.875Z,102021.72
2023-05-18T02:56:21.301Z,102032.53
2023-05-18T02:58:47.828Z,102023.38
2023-05-18T03:01:14.391Z,102037.03
2023-05-18T03:03:42.278Z,102037.03
2023-05-18T03:06:09.626Z,102026.41
2023-05-18T03:08:37.182Z,102035.75
2023-05-18T03:11:04.092Z,102034.44
2023-05-18T03:13:30.506Z,102034.03
2023-05-18T03:15:57.584Z,102036.44
2023-05-18T03:18:25.281Z,102035.50
2023-05-18T03:20:52.617Z,102035.00
2023-05-18T03:23:20.041Z,102038.31
2023-05-18T03:25:46.487Z,102040.06
2023-05-18T03:28:12.899Z,102032.66
2023-05-18T03:30:39.321Z,102041.56
2023-05-18T03:33:05.822Z,102037.47
2023-05-18T03:35:32.797Z,102038.03
2023-05-18T03:37:59.469Z,102041.81
2023-05-18T03:40:25.917Z,102039.81
2023-05-18T03:42:52.351Z,102036.69
2023-05-18T03:45:18.877Z,102040.63
2023-05-18T03:47:45.468Z,102042.06
2023-05-18T03:50:12.112Z,102043.94
2023-05-18T03:52:39.514Z,102041.03
2023-05-18T03:55:06.552Z,102042.72
2023-05-18T03:57:33.179Z,102040.94
2023-05-18T03:59:59.635Z,102037.00
2023-05-18T04:02:26.457Z,102047.78
2023-05-18T04:04:53.942Z,102039.41
2023-05-18T04:07:24.226Z,102041.97
2023-05-18T04:09:55.252Z,102041.06
2023-05-18T04:12:21.667Z,102052.56
2023-05-18T04:14:50.919Z,102049.78
2023-05-18T04:17:22.025Z,102058.50
2023-05-18T04:19:49.602Z,102060.88
2023-05-18T04:22:16.612Z,102057.91
2023-05-18T04:24:45.608Z,102055.72
2023-05-18T04:27:12.330Z,102060.66
2023-05-18T04:29:39.227Z,102059.09
2023-05-18T04:32:10.580Z,102063.63
2023-05-18T04:34:37.472Z,102060.75
2023-05-18T04:37:07.938Z,102054.91
2023-05-18T04:39:35.036Z,102060.50
2023-05-18T04:42:01.744Z,102051.66
2023-05-18T04:44:28.689Z,102061.19
2023-05-18T04:46:55.279Z,102060.19
2023-05-18T04:49:22.555Z,102060.69
2023-05-18T04:51:50.159Z,102067.09
2023-05-18T04:54:16.599Z,102061.25
2023-05-18T04:56:43.013Z,102068.00
2023-05-18T04:59:10.684Z,102068.44
2023-05-18T05:01:37.299Z,102061.44
2023-05-18T05:04:06.156Z,102068.50
2023-05-18T05:06:32.590Z,102068.44
2023-05-18T05:08:59.097Z,102062.97
2023-05-18T05:11:25.674Z,102064.09
2023-05-18T05:13:52.692Z,102061.63
2023-05-18T05:16:19.148Z,102064.09
2023-05-18T05:18:47.284Z,102065.19
2023-05-18T05:21:13.971Z,102069.56
2023-05-18T05:23:41.271Z,102068.09
2023-05-18T05:26:07.739Z,102067.81
2023-05-18T05:28:34.204Z,102072.41
2023-05-18T05:31:00.711Z,102072.72
2023-05-18T05:33:27.250Z,102070.47
2023-05-18T05:35:53.776Z,102065.47
2023-05-18T05:38:20.314Z,102065.88
2023-05-18T05:40:46.775Z,102064.44
2023-05-18T05:43:13.202Z,102067.97
2023-05-18T05:45:39.692Z,102070.19
2023-05-18T05:48:06.378Z,102078.16
2023-05-18T05:50:32.836Z,102069.47
2023-05-18T05:52:59.947Z,102060.66
2023-05-18T05:55:26.443Z,102058.53
2023-05-18T05:57:53.071Z,102067.84
2023-05-18T06:00:20.069Z,102066.00
2023-05-18T06:02:46.611Z,102065.56
2023-05-18T06:05:13.063Z,102068.44
2023-05-18T06:07:39.504Z,102074.41
2023-05-18T06:10:06.424Z,102070.41
2023-05-18T06:12:32.852Z,102078.91
2023-05-18T06:14:59.354Z,102065.13
2023-05-18T06:17:26.570Z,102068.78
2023-05-18T06:19:53.956Z,102065.06
2023-05-18T06:22:20.551Z,102065.03
2023-05-18T06:24:47.204Z,102070.19
2023-05-18T06:27:13.612Z,102068.06
2023-05-18T06:29:46.650Z,102070.53
2023-05-18T06:32:13.477Z,102085.13
2023-05-18T06:34:40.006Z,102085.03
2023-05-18T06:37:06.586Z,102086.41
2023-05-18T06:39:32.997Z,102083.97
2023-05-18T06:41:59.434Z,102091.28
2023-05-18T06:44:26.406Z,102086.41
2023-05-18T06:46:52.836Z,102087.31
2023-05-18T06:49:19.245Z,102092.19
2023-05-18T06:51:45.878Z,102091.13
2023-05-18T06:54:12.947Z,102091.13
2023-05-18T06:56:39.406Z,102088.53
2023-05-18T06:59:05.918Z,102086.97
2023-05-18T07:01:33.650Z,102081.00
2023-05-18T07:04:00.282Z,102084.81
2023-05-18T07:06:26.792Z,102089.44
2023-05-18T07:08:53.235Z,102083.56
2023-05-18T07:11:19.790Z,102081.78
2023-05-18T07:13:46.267Z,102081.75
2023-05-18T07:16:12.748Z,102080.69
2023-05-18T07:18:39.336Z,102083.94
2023-05-18T07:21:05.902Z,102078.91
2023-05-18T07:23:32.623Z,102082.41
2023-05-18T07:25:59.089Z,102090.34
2023-05-18T07:28:25.719Z,102085.69
2023-05-18T07:30:52.200Z,102085.16
2023-05-18T07:33:18.678Z,102089.19
2023-05-18T07:35:45.220Z,102077.97
2023-05-18T07:38:11.630Z,102081.41
2023-05-18T07:40:38.209Z,102081.16
2023-05-18T07:43:04.615Z,102077.16
2023-05-18T07:45:31.795Z,102072.47
2023-05-18T07:47:58.580Z,102067.38
2023-05-18T07:50:25.117Z,102071.97
2023-05-18T07:52:51.586Z,102074.75
2023-05-18T07:55:18.679Z,102074.63
2023-05-18T07:57:45.117Z,102076.22
2023-05-18T08:00:12.139Z,102070.75
2023-05-18T08:02:38.707Z,102070.81
2023-05-18T08:05:05.592Z,102073.22
2023-05-18T08:07:32.804Z,102071.22
2023-05-18T08:09:59.239Z,102069.81
2023-05-18T08:12:25.725Z,102070.31
2023-05-18T08:14:52.177Z,102065.44
2023-05-18T08:17:19.629Z,102058.13
2023-05-18T08:19:47.402Z,102057.50
2023-05-18T08:22:14.890Z,102066.53
2023-05-18T08:24:41.352Z,102062.66
2023-05-18T08:27:09.843Z,102064.88
2023-05-18T08:29:36.271Z,102052.53
2023-05-18T08:32:02.856Z,102055.13
2023-05-18T08:34:30.095Z,102052.28
2023-05-18T08:36:56.569Z,102049.91
2023-05-18T08:39:23.353Z,102049.00
2023-05-18T08:42:18.881Z,102042.72
2023-05-18T08:44:46.154Z,102038.84
2023-05-18T08:47:15.296Z,102042.75
2023-05-18T08:49:44.863Z,102046.53
2023-05-18T08:52:16.187Z,102043.78
2023-05-18T08:54:42.710Z,102043.44
2023-05-18T08:57:09.648Z,102045.84
2023-05-18T08:59:41.007Z,102048.97
2023-05-18T09:02:08.026Z,102048.22
2023-05-18T09:04:35.099Z,102032.22
2023-05-18T09:07:03.658Z,102026.84
2023-05-18T09:09:31.003Z,102028.03
2023-05-18T09:11:57.713Z,102029.75
2023-05-18T09:14:25.951Z,102021.13
2023-05-18T09:16:53.260Z,102026.50
2023-05-18T09:19:20.063Z,102015.72
2023-05-18T09:21:46.935Z,102014.47
2023-05-18T09:24:13.884Z,102009.09
2023-05-18T09:26:40.624Z,102007.28
2023-05-18T09:29:17.475Z,102016.97
2023-05-18T09:31:45.856Z,102003.94
2023-05-18T09:34:13.185Z,102013.09
2023-05-18T09:36:40.278Z,102005.94
2023-05-18T09:39:09.425Z,102006.84
2023-05-18T09:41:39.292Z,102004.38
2023-05-18T09:44:09.317Z,102006.78
2023-05-18T09:46:37.694Z,102000.69
2023-05-18T09:49:05.432Z,102007.66
2023-05-18T09:51:36.255Z,102015.03
2023-05-18T09:54:05.860Z,102013.88
2023-05-18T09:56:35.870Z,102008.72
2023-05-18T09:59:15.607Z,102013.81
2023-05-18T10:01:55.172Z,101998.22
2023-05-18T10:04:21.744Z,101995.56
2023-05-18T10:06:49.511Z,102001.88
2023-05-18T10:09:16.821Z,102004.00
2023-05-18T10:11:44.094Z,102008.59
2023-05-18T10:14:13.639Z,101994.09
2023-05-18T10:16:41.481Z,101991.59
2023-05-18T10:19:09.228Z,101996.63
2023-05-18T10:21:36.784Z,101995.22
2023-05-18T10:24:04.618Z,102003.41
2023-05-18T10:26:32.993Z,101984.78
2023-05-18T10:29:00.145Z,101985.47
2023-05-18T10:31:27.731Z,101987.78
2023-05-18T10:33:55.591Z,101993.78
2023-05-18T10:36:22.373Z,101989.75
2023-05-18T10:38:49.192Z,101978.91
2023-05-18T10:41:18.770Z,101979.56
2023-05-18T10:43:45.988Z,101974.34
2023-05-18T10:46:13.936Z,101972.44
2023-05-18T10:48:40.891Z,101966.28
2023-05-18T10:51:07.972Z,101970.72
2023-05-18T10:53:34.510Z,101965.84
2023-05-18T10:56:01.742Z,101964.94
2023-05-18T10:58:29.810Z,101960.84
2023-05-18T11:00:58.358Z,101962.09
2023-05-18T11:03:26.852Z,101957.38
2023-05-18T11:06:08.901Z,101965.91
2023-05-18T11:08:43.414Z,101952.59
2023-05-18T11:11:09.881Z,101955.91
2023-05-18T11:13:38.435Z,101948.13
2023-05-18T11:16:06.663Z,101953.25
2023-05-18T11:18:52.354Z,101949.94
2023-05-18T11:21:19.566Z,101953.72
2023-05-18T11:24:13.827Z,101953.53
2023-05-18T11:26:40.946Z,101950.25
2023-05-18T11:29:24.444Z,101942.59
2023-05-18T11:31:51.935Z,101934.25
2023-05-18T11:34:40.087Z,101940.28
2023-05-18T11:37:09.861Z,101935.34
2023-05-18T11:39:42.104Z,101931.44
2023-05-18T11:42:18.515Z,101935.97
2023-05-18T11:44:52.150Z,101939.88
2023-05-18T11:47:18.732Z,101929.22
2023-05-18T11:49:46.705Z,101924.34
2023-05-18T11:52:19.490Z,101921.97
2023-05-18T11:54:56.825Z,101920.75
2023-05-18T11:57:35.506Z,101922.94
2023-05-18T12:00:07.873Z,101921.81
2023-05-18T12:02:34.891Z,101912.66
2023-05-18T12:05:02.820Z,101904.56
2023-05-18T12:07:34.257Z,101918.72
2023-05-18T12:10:08.408Z,101899.63
2023-05-18T12:12:35.163Z,101896.88
2023-05-18T12:15:04.074Z,101898.25
2023-05-18T12:17:49.795Z,101889.66
2023-05-18T12:20:21.262Z,101898.63
2023-05-18T12:22:53.000Z,101888.00
2023-05-18T12:25:20.059Z,101884.19
2023-05-18T12:27:48.059Z,101887.47
2023-05-18T12:30:21.312Z,101891.69
2023-05-18T12:32:51.246Z,101888.50
2023-05-18T12:35:21.542Z,101880.75
2023-05-18T12:37:48.045Z,101864.91
2023-05-18T12:40:18.030Z,101864.88
2023-05-18T12:42:56.607Z,101861.38
2023-05-18T12:45:24.519Z,101868.97
2023-05-18T12:47:54.372Z,101860.50
2023-05-18T12:50:22.107Z,101855.91
2023-05-18T12:52:48.785Z,101863.19
2023-05-18T12:55:21.677Z,101850.22
2023-05-18T12:58:04.488Z,101856.19
2023-05-18T13:00:34.877Z,101865.22
2023-05-18T13:03:14.650Z,101857.69
2023-05-18T13:05:46.619Z,101839.19
2023-05-18T13:08:18.971Z,101837.63
2023-05-18T13:10:45.615Z,101833.84
2023-05-18T13:13:15.365Z,101841.16
2023-05-18T13:15:42.756Z,101845.72
2023-05-18T13:18:13.005Z,101829.84
2023-05-18T13:20:45.278Z,101838.00
2023-05-18T13:23:13.897Z,101835.94
2023-05-18T13:25:41.092Z,101826.44
2023-05-18T13:28:09.172Z,101825.72
2023-05-18T13:30:35.717Z,101829.78
2023-05-18T13:33:02.379Z,101830.41
2023-05-18T13:35:29.187Z,101822.75
2023-05-18T13:37:55.772Z,101829.09
2023-05-18T13:40:24.995Z,101821.38
2023-05-18T13:42:51.997Z,101816.78
2023-05-18T13:45:19.132Z,101810.47
2023-05-18T13:47:47.723Z,101804.91
2023-05-18T13:50:14.249Z,101801.28
2023-05-18T13:52:40.750Z,101809.66
2023-05-18T13:55:07.610Z,101801.19
2023-05-18T13:57:34.297Z,101803.78
2023-05-18T14:00:03.803Z,101812.28
2023-05-18T14:02:30.299Z,101801.06
2023-05-18T14:04:56.828Z,101800.75
2023-05-18T14:07:24.238Z,101795.13
2023-05-18T14:09:50.824Z,101799.06
2023-05-18T14:12:17.264Z,101781.94
2023-05-18T14:14:43.733Z,101785.72
2023-05-18T14:17:11.409Z,101785.22
2023-05-18T14:19:38.150Z,101784.44
2023-05-18T14:22:04.740Z,101778.34
2023-05-18T14:24:31.165Z,101778.06
2023-05-18T14:26:57.701Z,101773.34
2023-05-18T14:29:24.217Z,101774.81
2023-05-18T14:31:50.969Z,101775.72
2023-05-18T14:34:17.738Z,101779.16
2023-05-18T14:36:44.181Z,101784.13
2023-05-18T14:39:10.625Z,101784.56
2023-05-18T14:41:37.048Z,101774.47
2023-05-18T14:44:09.777Z,101777.31
2023-05-18T14:46:36.737Z,101776.59
2023-05-18T14:49:03.273Z,101778.22
2023-05-18T14:51:29.687Z,101777.91
2023-05-18T14:53:56.124Z,101772.91
2023-05-18T14:56:22.714Z,101773.59
2023-05-18T14:58:49.187Z,101779.94
2023-05-18T15:01:15.639Z,101775.44
2023-05-18T15:03:42.426Z,101773.72
2023-05-18T15:06:09.186Z,101767.13
2023-05-18T15:08:35.646Z,101771.13
2023-05-18T15:11:02.074Z,101772.91
2023-05-18T15:13:28.528Z,101774.78
2023-05-18T15:15:55.042Z,101785.88
2023-05-18T15:18:21.501Z,101771.66
2023-05-18T15:20:48.404Z,101772.50
2023-05-18T15:23:14.816Z,101775.06
2023-05-18T15:25:41.435Z,101777.41
2023-05-18T15:28:08.940Z,101763.78
2023-05-18T15:30:35.427Z,101762.81
2023-05-18T15:33:06.134Z,101767.72
2023-05-18T15:35:34.730Z,101766.50
2023-05-18T15:38:01.171Z,101768.97
2023-05-18T15:40:27.689Z,101772.13
2023-05-18T15:42:54.166Z,101771.09
2023-05-18T15:45:20.765Z,101756.28
2023-05-18T15:47:47.241Z,101762.13
2023-05-18T15:50:13.750Z,101757.63
2023-05-18T15:52:40.199Z,101755.63
2023-05-18T15:55:07.071Z,101756.44
2023-05-18T15:57:33.589Z,101750.31
2023-05-18T16:00:00.190Z,101760.50
2023-05-18T16:02:26.673Z,101760.41
2023-05-18T16:04:53.121Z,101752.63
2023-05-18T16:07:19.625Z,101758.66
2023-05-18T16:09:47.920Z,101751.84
2023-05-18T16:12:14.368Z,101745.47
2023-05-18T16:14:40.833Z,101747.28
2023-05-18T16:17:07.387Z,101751.88
2023-05-18T16:19:34.016Z,101748.16
2023-05-18T16:22:00.446Z,101747.84
2023-05-18T16:24:26.867Z,101745.00
2023-05-18T16:26:53.324Z,101746.47
2023-05-18T16:29:19.738Z,101745.63
2023-05-18T16:31:46.262Z,101743.25
2023-05-18T16:34:12.710Z,101738.97
2023-05-18T16:36:39.197Z,101748.41
2023-05-18T16:39:07.696Z,101738.66
2023-05-18T16:41:34.125Z,101740.47
2023-05-18T16:44:00.569Z,101746.00
2023-05-18T16:46:27.646Z,101749.00
2023-05-18T16:48:54.086Z,101744.06
2023-05-18T16:51:20.684Z,101742.97
2023-05-18T16:53:47.101Z,101749.56
2023-05-18T16:56:13.593Z,101741.88
2023-05-18T16:58:40.019Z,101746.50
2023-05-18T17:01:16.080Z,101742.19
2023-05-18T17:03:53.073Z,101748.63
2023-05-18T17:06:21.100Z,101751.09
2023-05-18T17:08:47.546Z,101749.22
2023-05-18T17:11:14.314Z,101742.00
2023-05-18T17:13:40.756Z,101739.22
2023-05-18T17:16:07.261Z,101739.38
2023-05-18T17:18:33.725Z,101745.41
2023-05-18T17:21:00.166Z,101738.44
2023-05-18T17:23:26.765Z,101742.19
2023-05-18T17:26:00.851Z,101741.28
2023-05-18T17:28:32.104Z,101745.50
2023-05-18T17:30:58.521Z,101738.97
2023-05-18T17:33:24.932Z,101734.94
2023-05-18T17:35:51.544Z,101740.69
2023-05-18T17:38:18.102Z,101744.78
2023-05-18T17:40:44.639Z,101740.97
2023-05-18T17:43:11.172Z,101742.97
2023-05-18T17:45:37.867Z,101738.94
2023-05-18T17:48:04.618Z,101737.47
2023-05-18T17:50:31.299Z,101728.22
2023-05-18T17:52:58.307Z,101736.16
2023-05-18T17:55:24.749Z,101739.25
2023-05-18T17:57:51.530Z,101739.22
2023-05-18T18:00:18.667Z,101741.19
2023-05-18T18:02:45.157Z,101739.81
2023-05-18T18:05:11.656Z,101749.91
2023-05-18T18:07:39.085Z,101741.63
2023-05-18T18:10:06.816Z,101748.94
2023-05-18T18:12:33.260Z,101745.81
2023-05-18T18:14:59.738Z,101743.91
2023-05-18T18:17:26.243Z,101742.91
2023-05-18T18:19:52.719Z,101747.94
2023-05-18T18:22:19.248Z,101754.59
2023-05-18T18:24:45.790Z,101758.69
2023-05-18T18:27:12.219Z,101750.41
2023-05-18T18:29:38.634Z,101754.84
2023-05-18T18:32:05.403Z,101759.31
2023-05-18T18:34:31.874Z,101761.75
2023-05-18T18:36:58.920Z,101759.47
2023-05-18T18:39:25.526Z,101763.75
2023-05-18T18:41:51.973Z,101763.94
2023-05-18T18:44:18.377Z,101765.00
2023-05-18T18:46:45.242Z,101768.22
2023-05-18T18:49:11.732Z,101768.25
2023-05-18T18:51:38.181Z,101768.47
2023-05-18T18:54:04.778Z,101763.94
2023-05-18T18:56:31.506Z,101759.75
2023-05-18T18:58:57.932Z,101766.22
2023-05-18T19:01:24.477Z,101776.41
2023-05-18T19:03:52.813Z,101779.09
2023-05-18T19:06:20.172Z,101774.38
2023-05-18T19:08:46.607Z,101780.91
2023-05-18T19:11:13.039Z,101782.75
2023-05-18T19:13:39.485Z,101784.53
2023-05-18T19:16:06.541Z,101791.31
2023-05-18T19:18:32.988Z,101783.88
2023-05-18T19:21:01.166Z,101792.25
2023-05-18T19:23:27.667Z,101788.59
2023-05-18T19:25:54.905Z,101790.63
2023-05-18T19:28:21.629Z,101793.31
2023-05-18T19:30:48.159Z,101797.50
2023-05-18T19:33:14.663Z,101792.38
2023-05-18T19:35:41.381Z,101793.31
2023-05-18T19:38:07.896Z,101798.69
2023-05-18T19:40:34.381Z,101803.28
2023-05-18T19:43:01.715Z,101800.91
2023-05-18T19:45:28.237Z,101801.91
2023-05-18T19:47:54.850Z,101804.59
2023-05-18T19:50:21.404Z,101797.34
2023-05-18T19:52:49.410Z,101806.59
2023-05-18T19:55:16.450Z,101809.47
2023-05-18T19:57:42.919Z,101819.00
2023-05-18T20:00:11.013Z,101816.00
2023-05-18T20:02:37.812Z,101818.09
2023-05-18T20:05:06.720Z,101827.00
2023-05-18T20:07:33.908Z,101840.28
2023-05-18T20:10:00.349Z,101832.59
2023-05-18T20:12:28.278Z,101838.56
2023-05-18T20:14:54.792Z,101836.13
2023-05-18T20:17:21.535Z,101841.91
2023-05-18T20:19:50.641Z,101838.97
2023-05-18T20:22:17.894Z,101846.66
2023-05-18T20:24:44.725Z,101851.19
2023-05-18T20:27:14.757Z,101852.88
2023-05-18T20:29:41.438Z,101847.66
2023-05-18T20:32:08.058Z,101848.94
2023-05-18T20:34:34.889Z,101844.59
2023-05-18T20:37:01.456Z,101851.25
2023-05-18T20:39:28.968Z,101845.75
2023-05-18T20:41:57.540Z,101853.69
2023-05-18T20:44:24.917Z,101854.50
2023-05-18T20:46:52.994Z,101856.25
2023-05-18T20:49:22.402Z,101858.31
2023-05-18T20:51:49.409Z,101864.44
2023-05-18T20:54:17.765Z,101857.19
2023-05-18T20:56:44.449Z,101862.16
2023-05-18T20:59:12.510Z,101855.41
2023-05-18T21:01:39.727Z,101865.22
2023-05-18T21:04:06.660Z,101863.41
2023-05-18T21:06:34.248Z,101863.09
2023-05-18T21:09:01.357Z,101865.59
2023-05-18T21:11:27.868Z,101863.16
2023-05-18T21:13:54.282Z,101868.13
2023-05-18T21:16:20.772Z,101862.00
2023-05-18T21:18:47.394Z,101867.44
2023-05-18T21:21:13.869Z,101872.13
2023-05-18T21:23:40.304Z,101869.13
2023-05-18T21:26:06.737Z,101868.47
2023-05-18T21:28:33.188Z,101865.41
2023-05-18T21:30:59.640Z,101863.16
2023-05-18T21:33:26.224Z,101863.81
2023-05-18T21:35:52.775Z,101872.09
2023-05-18T21:38:19.228Z,101871.81
2023-05-18T21:40:46.636Z,101869.22
2023-05-18T21:43:13.292Z,101873.75
2023-05-18T21:45:39.821Z,101871.94
2023-05-18T21:48:06.556Z,101870.47
2023-05-18T21:50:34.662Z,101878.78
2023-05-18T21:53:03.001Z,101877.53
2023-05-18T21:55:30.752Z,101878.31
2023-05-18T21:57:57.195Z,101880.50
2023-05-18T22:00:23.670Z,101876.34
2023-05-18T22:02:50.178Z,101877.00
2023-05-18T22:05:18.619Z,101878.31
2023-05-18T22:07:45.330Z,101880.91
2023-05-18T22:10:11.767Z,101881.44
2023-05-18T22:12:40.302Z,101880.41
2023-05-18T22:15:07.510Z,101880.91
2023-05-18T22:17:34.315Z,101877.38
2023-05-18T22:20:00.856Z,101876.22
2023-05-18T22:22:30.619Z,101876.34
2023-05-18T22:24:57.747Z,101875.22
2023-05-18T22:27:24.188Z,101864.53
2023-05-18T22:29:50.898Z,101870.38
2023-05-18T22:32:17.875Z,101871.56
2023-05-18T22:34:44.484Z,101863.75
2023-05-18T22:37:10.894Z,101877.78
2023-05-18T22:39:37.353Z,101871.41
2023-05-18T22:42:03.879Z,101873.25
2023-05-18T22:44:30.457Z,101870.34
2023-05-18T22:46:57.071Z,101872.22
2023-05-18T22:49:23.593Z,101866.19
2023-05-18T22:51:50.021Z,101870.31
2023-05-18T22:54:16.474Z,101868.75
2023-05-18T22:56:42.897Z,101870.06
2023-05-18T22:59:11.454Z,101869.19
2023-05-18T23:01:38.235Z,101878.72
2023-05-18T23:04:04.825Z,101873.94
2023-05-18T23:06:31.642Z,101882.06
2023-05-18T23:09:00.301Z,101886.97
2023-05-18T23:11:28.355Z,101879.00
2023-05-18T23:13:54.886Z,101875.28
2023-05-18T23:16:22.490Z,101875.63
2023-05-18T23:18:50.528Z,101879.06
2023-05-18T23:21:17.155Z,101875.84
2023-05-18T23:23:45.564Z,101877.50
2023-05-18T23:26:12.560Z,101869.72
2023-05-18T23:28:39.033Z,101875.19
2023-05-18T23:31:05.535Z,101869.81
2023-05-18T23:33:32.354Z,101874.66
2023-05-18T23:36:02.370Z,101880.25
2023-05-18T23:38:34.573Z,101876.25
2023-05-18T23:41:04.639Z,101874.53
2023-05-18T23:43:31.325Z,101870.31
2023-05-18T23:45:59.620Z,101862.91
2023-05-18T23:48:32.244Z,101869.00
2023-05-18T23:51:01.653Z,101863.41
2023-05-18T23:53:31.971Z,101856.38
2023-05-18T23:55:59.439Z,101856.94
2023-05-18T23:58:30.463Z,101851.84
